Due Process — WDI6717 — position and weather

sailwx.info

Track history (hours):
 
Tides and Currents Weather Stations Pressure Air Temp Water Temp Dewpoint Dewpoint Depression Visibility Wind Speed Wind Dir Waves Ship Positions

Due Process

Owner: Morrison, Freddy A, Deerfield Beach, FL. More information available from US FCC via Universal Licensing System and Coast Guard Vessel Documentation Center.

Last reported at 2018-Jan-08 18:45 UTC. Time now 2018-Jan-22 00:16 UTC.
Position N 26°05' W 080°08'.
Warning: this ship's position is 13 days out of date.

Length 30 m; draft 2 m.

Type: Pleasure craft. MMSI: 367721520.

Date/timePositionNaut miles runAvg speedWind from/ knotsBaromVisibWave heightAir tempDewpointWater temp
2018-Jan-08 18:45N 26°05' W 080°08'0 0.0
2018-Jan-08 18:30N 26°05' W 080°08'0 0.0
2018-Jan-08 18:00N 26°05' W 080°08'0 0.0
2018-Jan-08 17:30N 26°05' W 080°08'0 0.0
2018-Jan-08 16:48N 26°05' W 080°08'0 0.0
2018-Jan-08 16:30N 26°05' W 080°08'  
2018-Jan-01 22:24N 26°17' W 080°05'2 4.8
2018-Jan-01 22:00N 26°19' W 080°05'2 3.6
2018-Jan-01 21:30N 26°21' W 080°05'0 0.4
2018-Jan-01 21:00N 26°21' W 080°05'2 4.5
2018-Jan-01 20:30N 26°19' W 080°05'0 0.5
2018-Jan-01 20:00N 26°19' W 080°05'0 1.0
2018-Jan-01 19:30N 26°19' W 080°05'2 2.9
2018-Jan-01 18:53N 26°21' W 080°05'0 1.0
2018-Jan-01 18:30N 26°21' W 080°05'0 0.1
2018-Jan-01 17:51N 26°21' W 080°05'0 0.4
2018-Jan-01 17:30N 26°21' W 080°05'  
2017-Dec-29 20:36N 26°17' W 080°05'0 2.3
2017-Dec-29 20:30N 26°17' W 080°05'2 3.8
2017-Dec-29 20:00N 26°15' W 080°04'1 1.0
2017-Dec-29 19:30N 26°15' W 080°05'2 4.3
2017-Dec-29 19:00N 26°17' W 080°05'  
Track history (hours):
 
Tides and Currents Weather Stations Pressure Air Temp Water Temp Dewpoint Dewpoint Depression Visibility Wind Speed Wind Dir Waves Ship Positions

Due Process

Owner: Morrison, Freddy A, Deerfield Beach, FL. More information available from US FCC via Universal Licensing System and Coast Guard Vessel Documentation Center.

Last reported at 2018-Jan-08 18:45 UTC. Time now 2018-Jan-22 00:16 UTC.
Position N 26°05' W 080°08'.
Warning: this ship's position is 13 days out of date.

Length 30 m; draft 2 m.

Type: Pleasure craft. MMSI: 367721520.

Date/timePositionNaut miles runAvg speedWind from/ knotsBaromVisibWave heightAir tempDewpointWater temp
2018-Jan-08 18:45N 26°05' W 080°08'0 0.0
2018-Jan-08 18:30N 26°05' W 080°08'0 0.0
2018-Jan-08 18:00N 26°05' W 080°08'0 0.0
2018-Jan-08 17:30N 26°05' W 080°08'0 0.0
2018-Jan-08 16:48N 26°05' W 080°08'0 0.0
2018-Jan-08 16:30N 26°05' W 080°08'  
2018-Jan-01 22:24N 26°17' W 080°05'2 4.8
2018-Jan-01 22:00N 26°19' W 080°05'2 3.6
2018-Jan-01 21:30N 26°21' W 080°05'0 0.4
2018-Jan-01 21:00N 26°21' W 080°05'2 4.5
2018-Jan-01 20:30N 26°19' W 080°05'0 0.5
2018-Jan-01 20:00N 26°19' W 080°05'0 1.0
2018-Jan-01 19:30N 26°19' W 080°05'2 2.9
2018-Jan-01 18:53N 26°21' W 080°05'0 1.0
2018-Jan-01 18:30N 26°21' W 080°05'0 0.1
2018-Jan-01 17:51N 26°21' W 080°05'0 0.4
2018-Jan-01 17:30N 26°21' W 080°05'  
2017-Dec-29 20:36N 26°17' W 080°05'0 2.3
2017-Dec-29 20:30N 26°17' W 080°05'2 3.8
2017-Dec-29 20:00N 26°15' W 080°04'1 1.0
2017-Dec-29 19:30N 26°15' W 080°05'2 4.3
2017-Dec-29 19:00N 26°17' W 080°05'  

Dump ship's entire track history